EWG5MU EDDH-EGLL
Flight info
| Callsign | EWG5MU |
|---|---|
| Flight time | 1h 17m |
| Altitude | 36000 |
| Route | WSN5G/33 WSN N125 ITMIZ DCT ABNED L980 LOGAN |
| Aircraft | A320/M-SDE3FGHIRWY/LB1 |
Departure
| Time | 2026-04-25 21:30 |
|---|---|
| Airport | Hamburg Helmut Schmidt Airport (EDDH) |
Arrival
| Time | 2026-04-25 22:47 |
|---|---|
| Airport | London Heathrow Airport (EGLL) |
| Time | Latitude | Longitude | Altitude | Speed | Heading |
|---|---|---|---|---|---|
| 2026-04-25 20:31 | 53.63003 | 10.00361 | 51 ft | 0 kts | 122° |
| 2026-04-25 21:20 | 53.63014 | 10.00332 | 48 ft | 2 kts | 122° |
| 2026-04-25 21:20 | 53.63023 | 10.00308 | 50 ft | 2 kts | 122° |
| 2026-04-25 21:21 | 53.63032 | 10.00284 | 47 ft | 2 kts | 122° |
| 2026-04-25 21:21 | 53.63041 | 10.00259 | 50 ft | 3 kts | 131° |
| 2026-04-25 21:21 | 53.63054 | 10.00239 | 47 ft | 2 kts | 143° |
| 2026-04-25 21:21 | 53.63067 | 10.00222 | 50 ft | 3 kts | 150° |
| 2026-04-25 21:22 | 53.63083 | 10.00209 | 50 ft | 2 kts | 153° |
| 2026-04-25 21:22 | 53.63098 | 10.00195 | 50 ft | 3 kts | 165° |
| 2026-04-25 21:22 | 53.63107 | 10.00192 | 46 ft | 0 kts | 171° |
| 2026-04-25 21:25 | 53.63096 | 10.00195 | 48 ft | 5 kts | 171° |
| 2026-04-25 21:25 | 53.63047 | 10.00163 | 49 ft | 11 kts | 212° |
| 2026-04-25 21:25 | 53.62980 | 10.00093 | 51 ft | 10 kts | 212° |
| 2026-04-25 21:25 | 53.62933 | 10.00025 | 61 ft | 10 kts | 237° |
| 2026-04-25 21:26 | 53.62911 | 9.99968 | 50 ft | 4 kts | 236° |
| 2026-04-25 21:26 | 53.62897 | 9.99925 | 52 ft | 5 kts | 243° |
| 2026-04-25 21:26 | 53.62893 | 9.99912 | 52 ft | 0 kts | 244° |
| 2026-04-25 21:28 | 53.62890 | 9.99900 | 52 ft | 4 kts | 244° |
| 2026-04-25 21:29 | 53.62870 | 9.99832 | 51 ft | 9 kts | 244° |
| 2026-04-25 21:29 | 53.62885 | 9.99725 | 53 ft | 13 kts | 327° |
| 2026-04-25 21:29 | 53.63028 | 9.99601 | 49 ft | 49 kts | 332° |
| 2026-04-25 21:29 | 53.63534 | 9.99163 | 50 ft | 111 kts | 332° |
| 2026-04-25 21:30 | 53.64379 | 9.98437 | 60 ft | 159 kts | 334° |
| 2026-04-25 21:30 | 53.65373 | 9.97582 | 584 ft | 162 kts | 330° |
| 2026-04-25 21:30 | 53.66373 | 9.96692 | 1388 ft | 161 kts | 330° |
| 2026-04-25 21:30 | 53.67032 | 9.96093 | 1970 ft | 157 kts | 330° |
| 2026-04-25 21:31 | 53.68280 | 9.94928 | 3020 ft | 154 kts | 332° |
| 2026-04-25 21:31 | 53.69204 | 9.94036 | 3698 ft | 152 kts | 332° |
| 2026-04-25 21:31 | 53.70083 | 9.93073 | 4319 ft | 152 kts | 322° |
| 2026-04-25 21:31 | 53.70730 | 9.91655 | 4928 ft | 155 kts | 302° |
| 2026-04-25 21:32 | 53.71026 | 9.89874 | 5519 ft | 161 kts | 283° |
| 2026-04-25 21:32 | 53.70916 | 9.87963 | 6112 ft | 168 kts | 264° |
| 2026-04-25 21:32 | 53.70446 | 9.86103 | 6604 ft | 180 kts | 255° |
| 2026-04-25 21:32 | 53.69884 | 9.84042 | 6701 ft | 203 kts | 259° |
| 2026-04-25 21:33 | 53.69470 | 9.81665 | 6892 ft | 221 kts | 265° |
| 2026-04-25 21:33 | 53.69098 | 9.79034 | 7124 ft | 245 kts | 265° |
| 2026-04-25 21:33 | 53.68667 | 9.76142 | 7636 ft | 260 kts | 263° |
| 2026-04-25 21:33 | 53.68176 | 9.73174 | 8431 ft | 265 kts | 262° |
| 2026-04-25 21:34 | 53.67643 | 9.70190 | 9275 ft | 267 kts | 262° |
| 2026-04-25 21:34 | 53.67077 | 9.67184 | 10122 ft | 270 kts | 261° |
| 2026-04-25 21:34 | 53.66488 | 9.64133 | 10655 ft | 282 kts | 261° |
| 2026-04-25 21:34 | 53.65859 | 9.60850 | 10868 ft | 306 kts | 261° |
| 2026-04-25 21:35 | 53.64993 | 9.57402 | 11172 ft | 333 kts | 249° |
| 2026-04-25 21:35 | 53.63670 | 9.54154 | 11767 ft | 345 kts | 242° |
| 2026-04-25 21:35 | 53.62247 | 9.50878 | 12440 ft | 350 kts | 243° |
| 2026-04-25 21:35 | 53.60798 | 9.47523 | 13101 ft | 355 kts | 243° |
| 2026-04-25 21:36 | 53.59350 | 9.44155 | 13741 ft | 359 kts | 243° |
| 2026-04-25 21:36 | 53.57879 | 9.40725 | 14344 ft | 363 kts | 243° |
| 2026-04-25 21:36 | 53.56400 | 9.37287 | 14947 ft | 366 kts | 243° |
| 2026-04-25 21:36 | 53.54898 | 9.33803 | 15566 ft | 369 kts | 243° |
| 2026-04-25 21:37 | 53.53391 | 9.30312 | 16177 ft | 371 kts | 243° |
| 2026-04-25 21:37 | 53.52382 | 9.27977 | 16582 ft | 373 kts | 243° |
| 2026-04-25 21:37 | 53.50331 | 9.23230 | 17387 ft | 377 kts | 242° |
| 2026-04-25 21:37 | 53.48786 | 9.19661 | 17988 ft | 380 kts | 242° |
| 2026-04-25 21:38 | 53.47224 | 9.16062 | 18571 ft | 382 kts | 242° |
| 2026-04-25 21:38 | 53.45669 | 9.12491 | 19058 ft | 385 kts | 242° |
| 2026-04-25 21:38 | 53.44084 | 9.08862 | 19591 ft | 388 kts | 242° |
| 2026-04-25 21:38 | 53.42481 | 9.05191 | 20099 ft | 391 kts | 242° |
| 2026-04-25 21:39 | 53.40869 | 9.01494 | 20629 ft | 394 kts | 242° |
| 2026-04-25 21:39 | 53.39247 | 8.97775 | 21133 ft | 397 kts | 242° |
| 2026-04-25 21:39 | 53.37610 | 8.94033 | 21625 ft | 400 kts | 241° |
| 2026-04-25 21:39 | 53.35962 | 8.90276 | 22114 ft | 402 kts | 242° |
| 2026-04-25 21:40 | 53.34530 | 8.86293 | 22568 ft | 396 kts | 251° |
| 2026-04-25 21:40 | 53.33511 | 8.82048 | 23057 ft | 394 kts | 257° |
| 2026-04-25 21:40 | 53.32570 | 8.77734 | 23490 ft | 397 kts | 257° |
| 2026-04-25 21:40 | 53.31628 | 8.73440 | 23898 ft | 399 kts | 256° |
| 2026-04-25 21:41 | 53.30661 | 8.69063 | 24266 ft | 402 kts | 256° |
| 2026-04-25 21:41 | 53.29685 | 8.64675 | 24630 ft | 404 kts | 256° |
| 2026-04-25 21:41 | 53.28707 | 8.60257 | 24983 ft | 406 kts | 256° |
| 2026-04-25 21:41 | 53.27729 | 8.55813 | 25324 ft | 409 kts | 256° |
| 2026-04-25 21:42 | 53.26748 | 8.51340 | 25661 ft | 411 kts | 256° |
| 2026-04-25 21:42 | 53.25792 | 8.46854 | 25993 ft | 412 kts | 257° |
| 2026-04-25 21:42 | 53.24898 | 8.42293 | 26328 ft | 413 kts | 258° |
| 2026-04-25 21:42 | 53.24050 | 8.37707 | 26658 ft | 415 kts | 258° |
| 2026-04-25 21:43 | 53.23217 | 8.33092 | 26972 ft | 417 kts | 259° |
| 2026-04-25 21:43 | 53.22388 | 8.28500 | 27284 ft | 419 kts | 258° |
| 2026-04-25 21:43 | 53.21534 | 8.23850 | 27596 ft | 421 kts | 258° |
| 2026-04-25 21:43 | 53.20658 | 8.19180 | 27898 ft | 423 kts | 257° |
| 2026-04-25 21:44 | 53.19761 | 8.14477 | 28195 ft | 426 kts | 257° |
| 2026-04-25 21:44 | 53.18854 | 8.09768 | 28488 ft | 428 kts | 257° |
| 2026-04-25 21:44 | 53.17038 | 8.00252 | 29038 ft | 431 kts | 257° |
| 2026-04-25 21:45 | 53.16142 | 7.95505 | 29294 ft | 433 kts | 257° |
| 2026-04-25 21:45 | 53.15544 | 7.92331 | 29463 ft | 434 kts | 257° |
| 2026-04-25 21:45 | 53.14340 | 7.85950 | 29785 ft | 437 kts | 257° |
| 2026-04-25 21:45 | 53.13427 | 7.81134 | 30017 ft | 439 kts | 257° |
| 2026-04-25 21:46 | 53.12498 | 7.76256 | 30238 ft | 441 kts | 257° |
| 2026-04-25 21:46 | 53.11563 | 7.71389 | 30432 ft | 443 kts | 256° |
| 2026-04-25 21:46 | 53.10613 | 7.66512 | 30669 ft | 444 kts | 254° |
| 2026-04-25 21:46 | 53.09450 | 7.61748 | 30922 ft | 445 kts | 251° |
| 2026-04-25 21:47 | 53.08243 | 7.56999 | 31178 ft | 445 kts | 251° |
| 2026-04-25 21:47 | 53.07037 | 7.52263 | 31426 ft | 445 kts | 251° |
| 2026-04-25 21:47 | 53.05829 | 7.47531 | 31680 ft | 445 kts | 251° |
| 2026-04-25 21:47 | 53.04614 | 7.42787 | 31934 ft | 445 kts | 251° |
| 2026-04-25 21:48 | 53.03399 | 7.38056 | 32177 ft | 445 kts | 251° |
| 2026-04-25 21:48 | 53.02198 | 7.33390 | 32436 ft | 445 kts | 251° |
| 2026-04-25 21:48 | 53.00985 | 7.28680 | 32685 ft | 445 kts | 250° |
| 2026-04-25 21:48 | 52.99763 | 7.23951 | 32932 ft | 445 kts | 250° |
| 2026-04-25 21:49 | 52.98542 | 7.19235 | 33178 ft | 445 kts | 250° |
| 2026-04-25 21:49 | 52.97319 | 7.14509 | 33430 ft | 445 kts | 250° |
| 2026-04-25 21:49 | 52.96100 | 7.09801 | 33676 ft | 445 kts | 250° |
| 2026-04-25 21:49 | 52.94875 | 7.05084 | 33923 ft | 445 kts | 250° |
| 2026-04-25 21:50 | 52.93646 | 7.00367 | 34177 ft | 445 kts | 250° |
| 2026-04-25 21:50 | 52.92418 | 6.95665 | 34397 ft | 445 kts | 249° |
| 2026-04-25 21:50 | 52.91186 | 6.90956 | 34630 ft | 445 kts | 249° |
| 2026-04-25 21:50 | 52.90372 | 6.87853 | 34779 ft | 444 kts | 249° |
| 2026-04-25 21:51 | 52.88723 | 6.81570 | 35062 ft | 444 kts | 249° |
| 2026-04-25 21:51 | 52.87489 | 6.76886 | 35279 ft | 444 kts | 249° |
| 2026-04-25 21:51 | 52.86256 | 6.72219 | 35486 ft | 443 kts | 249° |
| 2026-04-25 21:51 | 52.85027 | 6.67577 | 35681 ft | 443 kts | 249° |
| 2026-04-25 21:52 | 52.83797 | 6.62942 | 35885 ft | 442 kts | 249° |
| 2026-04-25 21:52 | 52.82550 | 6.58256 | 36069 ft | 442 kts | 249° |
| 2026-04-25 21:52 | 52.81321 | 6.53642 | 36208 ft | 442 kts | 249° |
| 2026-04-25 21:53 | 52.78841 | 6.44348 | 36238 ft | 442 kts | 248° |
| 2026-04-25 21:53 | 52.76358 | 6.35087 | 36239 ft | 441 kts | 248° |
| 2026-04-25 21:54 | 52.73874 | 6.25827 | 36241 ft | 441 kts | 248° |
| 2026-04-25 21:54 | 52.71377 | 6.16576 | 36245 ft | 441 kts | 248° |
| 2026-04-25 21:55 | 52.68871 | 6.07340 | 36245 ft | 441 kts | 248° |
| 2026-04-25 21:55 | 52.66349 | 5.98111 | 36239 ft | 442 kts | 248° |
| 2026-04-25 21:56 | 52.63843 | 5.88943 | 36245 ft | 442 kts | 248° |
| 2026-04-25 21:56 | 52.61315 | 5.79722 | 36252 ft | 442 kts | 248° |
| 2026-04-25 21:57 | 52.58780 | 5.70528 | 36252 ft | 442 kts | 248° |
| 2026-04-25 21:57 | 52.56238 | 5.61338 | 36249 ft | 442 kts | 247° |
| 2026-04-25 21:58 | 52.53686 | 5.52152 | 36245 ft | 442 kts | 247° |
| 2026-04-25 21:58 | 52.51148 | 5.43041 | 36248 ft | 442 kts | 247° |
| 2026-04-25 21:59 | 52.48580 | 5.33878 | 36243 ft | 442 kts | 247° |
| 2026-04-25 21:59 | 52.46004 | 5.24729 | 36248 ft | 442 kts | 247° |
| 2026-04-25 22:00 | 52.42198 | 5.11241 | 36252 ft | 416 kts | 246° |
| 2026-04-25 22:00 | 52.40998 | 5.07025 | 36251 ft | 403 kts | 246° |
| 2026-04-25 22:00 | 52.39819 | 5.02887 | 36267 ft | 399 kts | 246° |
| 2026-04-25 22:01 | 52.37503 | 4.94751 | 36272 ft | 396 kts | 246° |
| 2026-04-25 22:01 | 52.35552 | 4.87901 | 36275 ft | 396 kts | 246° |
| 2026-04-25 22:02 | 52.32842 | 4.78432 | 36276 ft | 396 kts | 246° |
| 2026-04-25 22:02 | 52.30497 | 4.70292 | 36271 ft | 396 kts | 246° |
| 2026-04-25 22:03 | 52.28148 | 4.62161 | 36268 ft | 395 kts | 246° |
| 2026-04-25 22:03 | 52.25797 | 4.54046 | 36263 ft | 395 kts | 246° |
| 2026-04-25 22:04 | 52.23441 | 4.45935 | 36265 ft | 396 kts | 246° |
| 2026-04-25 22:04 | 52.21092 | 4.37887 | 36268 ft | 396 kts | 246° |
| 2026-04-25 22:05 | 52.18727 | 4.29799 | 36259 ft | 396 kts | 246° |
| 2026-04-25 22:05 | 52.16334 | 4.21661 | 36265 ft | 396 kts | 246° |
| 2026-04-25 22:06 | 52.13971 | 4.13635 | 36268 ft | 395 kts | 245° |
| 2026-04-25 22:06 | 52.11596 | 4.05587 | 36273 ft | 395 kts | 245° |
| 2026-04-25 22:07 | 52.09617 | 3.98916 | 36278 ft | 394 kts | 245° |
| 2026-04-25 22:07 | 52.06821 | 3.89544 | 36282 ft | 393 kts | 245° |
| 2026-04-25 22:08 | 52.04448 | 3.81600 | 36278 ft | 393 kts | 245° |
| 2026-04-25 22:08 | 52.02069 | 3.73629 | 36278 ft | 392 kts | 245° |
| 2026-04-25 22:09 | 51.99680 | 3.65663 | 36274 ft | 392 kts | 245° |
| 2026-04-25 22:09 | 51.97282 | 3.57726 | 36274 ft | 392 kts | 245° |
| 2026-04-25 22:10 | 51.94873 | 3.49801 | 36274 ft | 392 kts | 245° |
| 2026-04-25 22:10 | 51.92467 | 3.41893 | 36275 ft | 391 kts | 245° |
| 2026-04-25 22:11 | 51.90060 | 3.33986 | 36280 ft | 391 kts | 245° |
| 2026-04-25 22:11 | 51.87643 | 3.26087 | 36280 ft | 391 kts | 245° |
| 2026-04-25 22:12 | 51.85419 | 3.18154 | 36281 ft | 389 kts | 254° |
| 2026-04-25 22:12 | 51.84618 | 3.12476 | 36280 ft | 386 kts | 264° |
| 2026-04-25 22:13 | 51.83887 | 3.00985 | 36282 ft | 386 kts | 265° |
| 2026-04-25 22:13 | 51.83315 | 2.92359 | 36282 ft | 386 kts | 265° |
| 2026-04-25 22:14 | 51.82741 | 2.83752 | 36280 ft | 385 kts | 265° |
| 2026-04-25 22:14 | 51.82156 | 2.75138 | 36285 ft | 385 kts | 265° |
| 2026-04-25 22:15 | 51.81571 | 2.66610 | 35798 ft | 384 kts | 265° |
| 2026-04-25 22:15 | 51.81280 | 2.62332 | 35269 ft | 383 kts | 265° |
| 2026-04-25 22:16 | 51.80691 | 2.53763 | 34215 ft | 384 kts | 264° |
| 2026-04-25 22:16 | 51.80393 | 2.49477 | 33578 ft | 385 kts | 264° |
| 2026-04-25 22:16 | 51.80086 | 2.45074 | 32241 ft | 405 kts | 264° |
| 2026-04-25 22:16 | 51.79759 | 2.40462 | 31603 ft | 420 kts | 264° |
| 2026-04-25 22:17 | 51.79424 | 2.35746 | 31036 ft | 423 kts | 264° |
| 2026-04-25 22:17 | 51.79090 | 2.31046 | 30470 ft | 420 kts | 264° |
| 2026-04-25 22:17 | 51.78756 | 2.26375 | 29839 ft | 417 kts | 264° |
| 2026-04-25 22:17 | 51.78421 | 2.21742 | 29189 ft | 414 kts | 264° |
| 2026-04-25 22:18 | 51.78116 | 2.17191 | 28575 ft | 411 kts | 265° |
| 2026-04-25 22:18 | 51.77843 | 2.12618 | 27959 ft | 408 kts | 265° |
| 2026-04-25 22:18 | 51.77590 | 2.08065 | 27356 ft | 405 kts | 265° |
| 2026-04-25 22:18 | 51.77343 | 2.03557 | 26767 ft | 403 kts | 265° |
| 2026-04-25 22:19 | 51.77088 | 1.99061 | 26189 ft | 400 kts | 265° |
| 2026-04-25 22:19 | 51.76916 | 1.96108 | 25818 ft | 398 kts | 265° |
| 2026-04-25 22:19 | 51.76564 | 1.90183 | 25071 ft | 395 kts | 265° |
| 2026-04-25 22:19 | 51.76299 | 1.85791 | 24525 ft | 391 kts | 265° |
| 2026-04-25 22:20 | 51.76124 | 1.82924 | 24160 ft | 383 kts | 265° |
| 2026-04-25 22:20 | 51.75861 | 1.78675 | 23584 ft | 378 kts | 265° |
| 2026-04-25 22:20 | 51.75594 | 1.74454 | 22964 ft | 378 kts | 265° |
| 2026-04-25 22:20 | 51.75328 | 1.70264 | 22337 ft | 372 kts | 265° |
| 2026-04-25 22:21 | 51.74983 | 1.64802 | 21541 ft | 368 kts | 265° |
| 2026-04-25 22:21 | 51.74808 | 1.62041 | 21142 ft | 366 kts | 265° |
| 2026-04-25 22:21 | 51.74551 | 1.57964 | 20556 ft | 364 kts | 265° |
| 2026-04-25 22:21 | 51.74214 | 1.52584 | 19815 ft | 364 kts | 265° |
| 2026-04-25 22:22 | 51.74046 | 1.49908 | 19442 ft | 360 kts | 265° |
| 2026-04-25 22:22 | 51.73790 | 1.45896 | 18889 ft | 358 kts | 265° |
| 2026-04-25 22:22 | 51.73530 | 1.41914 | 18322 ft | 357 kts | 265° |
| 2026-04-25 22:22 | 51.73268 | 1.37953 | 17705 ft | 355 kts | 265° |
| 2026-04-25 22:23 | 51.73008 | 1.34002 | 17093 ft | 352 kts | 265° |
| 2026-04-25 22:23 | 51.72752 | 1.30091 | 16525 ft | 350 kts | 265° |
| 2026-04-25 22:23 | 51.72496 | 1.26217 | 16289 ft | 347 kts | 265° |
| 2026-04-25 22:23 | 51.72240 | 1.22338 | 16270 ft | 347 kts | 265° |
| 2026-04-25 22:24 | 51.71985 | 1.18466 | 16278 ft | 348 kts | 265° |
| 2026-04-25 22:24 | 51.71728 | 1.14593 | 16279 ft | 348 kts | 265° |
| 2026-04-25 22:24 | 51.71468 | 1.10718 | 16274 ft | 348 kts | 265° |
| 2026-04-25 22:24 | 51.71206 | 1.06891 | 16276 ft | 348 kts | 264° |
| 2026-04-25 22:25 | 51.70937 | 1.03028 | 16277 ft | 348 kts | 264° |
| 2026-04-25 22:25 | 51.70666 | 0.99149 | 16251 ft | 346 kts | 264° |
| 2026-04-25 22:25 | 51.70400 | 0.95314 | 15836 ft | 344 kts | 264° |
| 2026-04-25 22:25 | 51.70138 | 0.91495 | 15394 ft | 342 kts | 264° |
| 2026-04-25 22:26 | 51.69875 | 0.87697 | 14968 ft | 340 kts | 264° |
| 2026-04-25 22:26 | 51.69613 | 0.83925 | 14551 ft | 338 kts | 264° |
| 2026-04-25 22:26 | 51.69349 | 0.80163 | 14289 ft | 337 kts | 264° |
| 2026-04-25 22:26 | 51.69083 | 0.76409 | 14271 ft | 338 kts | 264° |
| 2026-04-25 22:27 | 51.68816 | 0.72653 | 14253 ft | 333 kts | 264° |
| 2026-04-25 22:27 | 51.68559 | 0.69061 | 14094 ft | 311 kts | 264° |
| 2026-04-25 22:27 | 51.68322 | 0.65759 | 13964 ft | 291 kts | 264° |
| 2026-04-25 22:27 | 51.68098 | 0.62626 | 13811 ft | 273 kts | 264° |
| 2026-04-25 22:28 | 51.67886 | 0.59645 | 13430 ft | 265 kts | 264° |
| 2026-04-25 22:28 | 51.67675 | 0.56720 | 12927 ft | 261 kts | 264° |
| 2026-04-25 22:28 | 51.67466 | 0.53825 | 12409 ft | 259 kts | 264° |
| 2026-04-25 22:28 | 51.67259 | 0.50950 | 11891 ft | 258 kts | 264° |
| 2026-04-25 22:29 | 51.67052 | 0.48093 | 11375 ft | 256 kts | 264° |
| 2026-04-25 22:29 | 51.66845 | 0.45246 | 10851 ft | 255 kts | 264° |
| 2026-04-25 22:29 | 51.66642 | 0.42426 | 10335 ft | 253 kts | 264° |
| 2026-04-25 22:30 | 51.66228 | 0.36820 | 9240 ft | 250 kts | 264° |
| 2026-04-25 22:30 | 51.66024 | 0.34084 | 8695 ft | 248 kts | 264° |
| 2026-04-25 22:30 | 51.65815 | 0.31304 | 8291 ft | 245 kts | 264° |
| 2026-04-25 22:30 | 51.65681 | 0.29495 | 8264 ft | 247 kts | 264° |
| 2026-04-25 22:31 | 51.65408 | 0.25840 | 8270 ft | 249 kts | 264° |
| 2026-04-25 22:31 | 51.65197 | 0.23066 | 8274 ft | 250 kts | 263° |
| 2026-04-25 22:31 | 51.64986 | 0.20302 | 8271 ft | 249 kts | 264° |
| 2026-04-25 22:31 | 51.64775 | 0.17533 | 8270 ft | 249 kts | 263° |
| 2026-04-25 22:32 | 51.64579 | 0.14761 | 8270 ft | 249 kts | 265° |
| 2026-04-25 22:32 | 51.64437 | 0.11985 | 8271 ft | 249 kts | 266° |
| 2026-04-25 22:32 | 51.64308 | 0.09241 | 8272 ft | 249 kts | 266° |
| 2026-04-25 22:32 | 51.64178 | 0.06465 | 8274 ft | 249 kts | 266° |
| 2026-04-25 22:33 | 51.64050 | 0.03718 | 8271 ft | 249 kts | 266° |
| 2026-04-25 22:33 | 51.63920 | 0.00939 | 8272 ft | 249 kts | 266° |
| 2026-04-25 22:33 | 51.63787 | -0.01865 | 8271 ft | 249 kts | 266° |
| 2026-04-25 22:33 | 51.63657 | -0.04616 | 8269 ft | 249 kts | 266° |
| 2026-04-25 22:34 | 51.63526 | -0.07394 | 8292 ft | 249 kts | 266° |
| 2026-04-25 22:34 | 51.63395 | -0.10179 | 8296 ft | 249 kts | 266° |
| 2026-04-25 22:34 | 51.63265 | -0.12959 | 8297 ft | 249 kts | 266° |
| 2026-04-25 22:34 | 51.63133 | -0.15734 | 8298 ft | 249 kts | 266° |
| 2026-04-25 22:35 | 51.63002 | -0.18515 | 8301 ft | 249 kts | 266° |
| 2026-04-25 22:35 | 51.62872 | -0.21294 | 8303 ft | 249 kts | 266° |
| 2026-04-25 22:35 | 51.62744 | -0.24060 | 8135 ft | 246 kts | 266° |
| 2026-04-25 22:35 | 51.62617 | -0.26805 | 7769 ft | 246 kts | 266° |
| 2026-04-25 22:36 | 51.62490 | -0.29557 | 7415 ft | 245 kts | 266° |
| 2026-04-25 22:36 | 51.62367 | -0.32271 | 7288 ft | 244 kts | 266° |
| 2026-04-25 22:36 | 51.62244 | -0.35012 | 7247 ft | 245 kts | 266° |
| 2026-04-25 22:36 | 51.62120 | -0.37735 | 7247 ft | 246 kts | 266° |
| 2026-04-25 22:37 | 51.61995 | -0.40490 | 7246 ft | 246 kts | 266° |
| 2026-04-25 22:37 | 51.61870 | -0.43233 | 7245 ft | 246 kts | 266° |
| 2026-04-25 22:37 | 51.61746 | -0.45975 | 7250 ft | 246 kts | 266° |
| 2026-04-25 22:37 | 51.61624 | -0.48711 | 7248 ft | 246 kts | 266° |
| 2026-04-25 22:38 | 51.61503 | -0.51422 | 7226 ft | 245 kts | 266° |
| 2026-04-25 22:38 | 51.61380 | -0.54132 | 6891 ft | 242 kts | 266° |
| 2026-04-25 22:38 | 51.61259 | -0.56823 | 6340 ft | 241 kts | 266° |
| 2026-04-25 22:38 | 51.61140 | -0.59508 | 5785 ft | 240 kts | 266° |
| 2026-04-25 22:39 | 51.61025 | -0.62171 | 5251 ft | 238 kts | 266° |
| 2026-04-25 22:39 | 51.60915 | -0.64813 | 4707 ft | 236 kts | 266° |
| 2026-04-25 22:39 | 51.60809 | -0.67438 | 4166 ft | 235 kts | 266° |
| 2026-04-25 22:39 | 51.60706 | -0.70049 | 4011 ft | 235 kts | 266° |
| 2026-04-25 22:40 | 51.60603 | -0.72674 | 4009 ft | 236 kts | 266° |
| 2026-04-25 22:40 | 51.60491 | -0.75304 | 4011 ft | 236 kts | 262° |
| 2026-04-25 22:40 | 51.59904 | -0.77724 | 4009 ft | 234 kts | 230° |
| 2026-04-25 22:40 | 51.58676 | -0.79417 | 4014 ft | 234 kts | 212° |
| 2026-04-25 22:41 | 51.57170 | -0.80288 | 4012 ft | 232 kts | 186° |
| 2026-04-25 22:41 | 51.55562 | -0.80483 | 4011 ft | 232 kts | 181° |
| 2026-04-25 22:41 | 51.53948 | -0.80578 | 4002 ft | 231 kts | 181° |
| 2026-04-25 22:41 | 51.52377 | -0.80659 | 3883 ft | 221 kts | 181° |
| 2026-04-25 22:42 | 51.50886 | -0.80738 | 3747 ft | 207 kts | 181° |
| 2026-04-25 22:42 | 51.49521 | -0.80558 | 3581 ft | 190 kts | 160° |
| 2026-04-25 22:42 | 51.48416 | -0.79515 | 3254 ft | 182 kts | 134° |
| 2026-04-25 22:42 | 51.47752 | -0.77828 | 3005 ft | 179 kts | 108° |
| 2026-04-25 22:43 | 51.47597 | -0.75856 | 3013 ft | 183 kts | 90° |
| 2026-04-25 22:43 | 51.47613 | -0.73812 | 3003 ft | 183 kts | 89° |
| 2026-04-25 22:43 | 51.47629 | -0.71761 | 2901 ft | 184 kts | 90° |
| 2026-04-25 22:43 | 51.47642 | -0.69715 | 2693 ft | 183 kts | 90° |
| 2026-04-25 22:44 | 51.47654 | -0.67707 | 2461 ft | 177 kts | 90° |
| 2026-04-25 22:44 | 51.47665 | -0.65752 | 2230 ft | 174 kts | 90° |
| 2026-04-25 22:44 | 51.47675 | -0.63842 | 1996 ft | 168 kts | 90° |
| 2026-04-25 22:44 | 51.47685 | -0.62022 | 1776 ft | 161 kts | 90° |
| 2026-04-25 22:45 | 51.47694 | -0.60237 | 1555 ft | 158 kts | 90° |
| 2026-04-25 22:45 | 51.47703 | -0.58515 | 1368 ft | 150 kts | 90° |
| 2026-04-25 22:45 | 51.47711 | -0.56861 | 1156 ft | 144 kts | 90° |
| 2026-04-25 22:45 | 51.47718 | -0.55297 | 953 ft | 138 kts | 90° |
| 2026-04-25 22:46 | 51.47725 | -0.53763 | 767 ft | 137 kts | 90° |
| 2026-04-25 22:46 | 51.47731 | -0.52233 | 581 ft | 137 kts | 91° |
| 2026-04-25 22:46 | 51.47737 | -0.50689 | 366 ft | 139 kts | 91° |
| 2026-04-25 22:46 | 51.47750 | -0.49146 | 188 ft | 138 kts | 90° |
| 2026-04-25 22:47 | 51.47758 | -0.47640 | 90 ft | 125 kts | 92° |
| 2026-04-25 22:47 | 51.47758 | -0.46448 | 89 ft | 90 kts | 88° |
| 2026-04-25 22:47 | 51.47758 | -0.45683 | 86 ft | 38 kts | 89° |
| 2026-04-25 22:47 | 51.47713 | -0.45479 | 86 ft | 12 kts | 162° |
| 2026-04-25 22:48 | 51.47657 | -0.45468 | 86 ft | 4 kts | 177° |
| 2026-04-25 22:48 | 51.47651 | -0.45468 | 86 ft | 0 kts | 179° |
| 2026-04-25 22:48 | 51.47622 | -0.45469 | 87 ft | 12 kts | 181° |
| 2026-04-25 22:48 | 51.47539 | -0.45465 | 87 ft | 10 kts | 166° |
| 2026-04-25 22:49 | 51.47507 | -0.45367 | 90 ft | 11 kts | 89° |
| 2026-04-25 22:49 | 51.47509 | -0.45282 | 90 ft | 5 kts | 88° |
| 2026-04-25 22:49 | 51.47509 | -0.45231 | 89 ft | 4 kts | 88° |
| 2026-04-25 22:49 | 51.47509 | -0.45162 | 91 ft | 10 kts | 90° |
| 2026-04-25 22:50 | 51.47509 | -0.45015 | 89 ft | 17 kts | 90° |
| 2026-04-25 22:50 | 51.47510 | -0.44825 | 88 ft | 19 kts | 90° |
| 2026-04-25 22:50 | 51.47509 | -0.44645 | 91 ft | 15 kts | 98° |
| 2026-04-25 22:50 | 51.47429 | -0.44561 | 87 ft | 17 kts | 180° |
| 2026-04-25 22:51 | 51.47302 | -0.44561 | 87 ft | 19 kts | 180° |
| 2026-04-25 22:51 | 51.47172 | -0.44560 | 87 ft | 17 kts | 179° |
| 2026-04-25 22:51 | 51.47055 | -0.44558 | 87 ft | 17 kts | 180° |
| 2026-04-25 22:51 | 51.46946 | -0.44558 | 87 ft | 12 kts | 180° |
| 2026-04-25 22:52 | 51.46866 | -0.44557 | 87 ft | 10 kts | 179° |
| 2026-04-25 22:52 | 51.46818 | -0.44577 | 89 ft | 3 kts | 267° |
| 2026-04-25 22:52 | 51.46820 | -0.44607 | 89 ft | 2 kts | 271° |
| 2026-04-25 22:52 | 51.46820 | -0.44622 | 87 ft | 2 kts | 270° |
| 2026-04-25 22:53 | 51.46819 | -0.44674 | 89 ft | 2 kts | 268° |
| 2026-04-25 22:53 | 51.46819 | -0.44682 | 87 ft | 0 kts | 267° |
| 2026-04-25 22:53 | 51.46819 | -0.44685 | 87 ft | 0 kts | 267° |